Time;durP1;ratioP1;P1;durP2;ratioP2;P2;SDS_P1;SDS_P2;PMS_P1;PMS_P2;Temp;Humidity;BMP_temperature;BMP_pressure;BME280_temperature;BME280_humidity;BME280_pressure;Samples;Min_cycle;Max_cycle;Signal;HPM_P1;HPM_P2
2022/09/26 00:01:24;;;;;;;;;;;;;;;8.44;100.00;98251.85;104883;1273;61253;-73
2022/09/26 00:03:52;;;;;;;;;;;;;;;8.44;100.00;98250.44;104915;1273;76647;-72
2022/09/26 00:06:19;;;;;;;;;;;;;;;8.44;100.00;98245.33;104935;1273;70413;-73
2022/09/26 00:08:46;;;;;;;;;;;;;;;8.43;100.00;98241.31;104870;1273;74452;-73
2022/09/26 00:11:14;;;;;;;;;;;;;;;8.43;100.00;98235.63;104899;1273;61277;-73
2022/09/26 00:13:41;;;;;;;;;;;;;;;8.44;100.00;98232.54;104906;1273;61604;-72
2022/09/26 00:16:09;;;;;;;;;;;;;;;8.45;100.00;98230.23;104702;1275;73587;-73
2022/09/26 00:18:37;;;;;;;;;;;;;;;8.43;100.00;98226.11;104907;1273;69261;-73
2022/09/26 00:21:03;;;;;;;;;;;;;;;8.42;100.00;98224.91;104994;1273;74420;-73
2022/09/26 00:23:30;;;;;;;;;;;;;;;8.42;100.00;98222.60;104899;1273;61333;-74
2022/09/26 00:25:59;;;;;;;;;;;;;;;8.43;100.00;98221.66;104944;1272;61290;-74
2022/09/26 00:28:26;;;;;;;;;;;;;;;8.45;100.00;98218.01;104930;1273;73671;-74
2022/09/26 00:30:53;;;;;;;;;;;;;;;8.47;100.00;98220.35;104911;1273;68726;-74
2022/09/26 00:33:19;;;;;;;;;;;;;;;8.49;100.00;98221.42;104920;1273;74433;-74
2022/09/26 00:35:50;;;;;;;;;;;;;;;8.51;100.00;98218.45;104868;1273;61366;-74
2022/09/26 00:38:17;;;;;;;;;;;;;;;8.53;100.00;98223.27;105038;1273;61385;-74
2022/09/26 00:40:43;;;;;;;;;;;;;;;8.54;100.00;98219.79;104873;1273;76468;-74
2022/09/26 00:43:29;;;;;;;;;;;;;;;8.57;100.00;98214.80;104908;1273;61284;-74
2022/09/26 00:45:59;;;;;;;;;;;;;;;8.60;100.00;98209.80;104633;1274;71523;-73
2022/09/26 00:48:26;;;;;;;;;;;;;;;8.64;100.00;98207.78;104628;1275;61447;-74
2022/09/26 00:50:53;;;;;;;;;;;;;;;8.67;100.00;98208.11;104951;1273;61265;-73
2022/09/26 00:53:23;;;;;;;;;;;;;;;8.67;100.00;98212.15;104926;1273;75429;-73
2022/09/26 00:55:57;;;;;;;;;;;;;;;8.65;100.00;98213.20;104902;1273;68689;-73
2022/09/26 00:58:27;;;;;;;;;;;;;;;8.62;100.00;98211.80;104934;1273;73291;-73
2022/09/26 01:00:54;;;;;;;;;;;;;;;8.62;100.00;98210.73;104886;1273;61342;-74
2022/09/26 01:03:22;;;;;;;;;;;;;;;8.62;100.00;98207.04;104857;1273;61246;-74
2022/09/26 01:05:49;;;;;;;;;;;;;;;8.62;100.00;98207.77;104900;1273;76082;-74
2022/09/26 01:08:19;;;;;;;;;;;;;;;8.62;100.00;98201.36;104912;1273;68427;-75
2022/09/26 01:10:45;;;;;;;;;;;;;;;8.63;100.00;98201.14;104898;1273;74649;-73
2022/09/26 01:13:12;;;;;;;;;;;;;;;8.63;100.00;98200.45;104853;1273;61270;-73
2022/09/26 01:15:38;;;;;;;;;;;;;;;8.62;100.00;98199.05;104899;1273;61342;-74
2022/09/26 01:18:06;;;;;;;;;;;;;;;8.63;100.00;98199.33;104925;1273;61336;-74
2022/09/26 01:20:44;;;;;;;;;;;;;;;8.63;100.00;98198.13;104908;1275;67982;-74
2022/09/26 01:23:29;;;;;;;;;;;;;;;8.62;100.00;98195.35;104870;1273;74546;-74
2022/09/26 01:26:14;;;;;;;;;;;;;;;8.63;100.00;98194.80;104935;1273;61323;-75
2022/09/26 01:28:55;;;;;;;;;;;;;;;8.61;100.00;98200.36;104913;1272;61153;-73
2022/09/26 01:31:42;;;;;;;;;;;;;;;8.59;100.00;98194.70;104910;1273;76599;-74
2022/09/26 01:34:08;;;;;;;;;;;;;;;8.56;100.00;98193.14;104552;1277;70141;-73
2022/09/26 01:36:41;;;;;;;;;;;;;;;8.55;100.00;98189.79;104611;1277;61385;-73
2022/09/26 01:39:25;;;;;;;;;;;;;;;8.57;100.00;98186.14;104496;1277;61315;-73
2022/09/26 01:42:13;;;;;;;;;;;;;;;8.59;100.00;98183.34;104619;1277;61187;-74
2022/09/26 01:44:46;;;;;;;;;;;;;;;8.62;100.00;98177.33;104564;1277;75260;-72
2022/09/26 01:47:16;;;;;;;;;;;;;;;8.63;100.00;98169.93;104596;1277;69050;-73
2022/09/26 01:49:42;;;;;;;;;;;;;;;8.64;100.00;98159.95;104547;1277;74001;-74
2022/09/26 01:52:27;;;;;;;;;;;;;;;8.65;100.00;98157.56;104556;1278;61513;-74
2022/09/26 01:55:00;;;;;;;;;;;;;;;8.66;100.00;98154.31;104510;1277;61608;-74
2022/09/26 01:57:28;;;;;;;;;;;;;;;8.67;100.00;98155.84;104396;1277;75364;-73
2022/09/26 01:59:58;;;;;;;;;;;;;;;8.68;100.00;98152.27;104737;1277;68952;-73
2022/09/26 02:02:27;;;;;;;;;;;;;;;8.68;100.00;98152.42;104668;1277;73562;-74
2022/09/26 02:04:58;;;;;;;;;;;;;;;8.68;100.00;98148.85;104562;1277;61280;-74
2022/09/26 02:07:33;;;;;;;;;;;;;;;8.68;100.00;98146.00;104605;1277;61837;-74
2022/09/26 02:10:02;;;;;;;;;;;;;;;8.70;100.00;98146.60;104580;1277;76425;-74
2022/09/26 02:12:32;;;;;;;;;;;;;;;8.70;100.00;98146.21;104805;1273;70245;-74
2022/09/26 02:15:01;;;;;;;;;;;;;;;8.69;100.00;98147.20;104967;1273;74473;-74
2022/09/26 02:17:32;;;;;;;;;;;;;;;8.68;100.00;98153.63;104973;1273;61411;-73
2022/09/26 02:20:01;;;;;;;;;;;;;;;8.68;100.00;98157.19;104939;1273;61363;-74
2022/09/26 02:22:32;;;;;;;;;;;;;;;8.67;100.00;98157.43;104902;1273;75400;-77
2022/09/26 02:25:00;;;;;;;;;;;;;;;8.67;100.00;98154.80;104899;1273;70119;-75
2022/09/26 02:27:26;;;;;;;;;;;;;;;8.67;100.00;98152.51;104882;1273;73483;-74
2022/09/26 02:29:53;;;;;;;;;;;;;;;8.66;100.00;98149.55;104899;1273;61383;-74
2022/09/26 02:32:23;;;;;;;;;;;;;;;8.67;100.00;98142.75;104910;1272;61269;-74
2022/09/26 02:34:50;;;;;;;;;;;;;;;8.68;100.00;98137.71;104902;1273;76519;-73
2022/09/26 02:37:17;;;;;;;;;;;;;;;8.70;100.00;98133.31;104925;1273;61550;-74
2022/09/26 02:39:45;;;;;;;;;;;;;;;8.73;100.00;98126.01;104868;1273;72170;-73
2022/09/26 02:42:12;;;;;;;;;;;;;;;8.75;100.00;98125.84;104893;1273;61271;-74
2022/09/26 02:44:47;;;;;;;;;;;;;;;8.77;100.00;98125.70;104927;1273;61404;-74
2022/09/26 02:47:17;;;;;;;;;;;;;;;8.78;100.00;98123.16;104928;1273;75976;-74
2022/09/26 02:49:46;;;;;;;;;;;;;;;8.78;100.00;98122.41;104927;1273;69440;-74
2022/09/26 02:52:27;;;;;;;;;;;;;;;8.78;100.00;98116.77;104878;1273;74442;-73
2022/09/26 02:55:12;;;;;;;;;;;;;;;8.78;100.00;98111.30;104894;1273;61452;-73
2022/09/26 02:57:48;;;;;;;;;;;;;;;8.78;100.00;98109.66;104886;1273;61356;-73
2022/09/26 03:00:21;;;;;;;;;;;;;;;8.78;100.00;98108.14;104922;1273;75731;-73
2022/09/26 03:02:53;;;;;;;;;;;;;;;8.77;100.00;98105.86;104897;1273;69189;-73
2022/09/26 03:05:21;;;;;;;;;;;;;;;8.78;100.00;98103.67;104892;1273;73893;-73
2022/09/26 03:07:51;;;;;;;;;;;;;;;8.78;100.00;98101.15;104869;1275;61322;-74
2022/09/26 03:10:18;;;;;;;;;;;;;;;8.80;100.00;98102.66;104926;1273;61257;-72
2022/09/26 03:12:45;;;;;;;;;;;;;;;8.81;100.00;98105.27;104631;1273;73707;-74
2022/09/26 03:15:12;;;;;;;;;;;;;;;8.82;100.00;98098.13;104883;1273;61309;-73
2022/09/26 03:17:41;;;;;;;;;;;;;;;8.83;100.00;98099.13;104912;1273;72936;-73
2022/09/26 03:20:13;;;;;;;;;;;;;;;8.84;100.00;98097.42;104893;1273;61331;-73
2022/09/26 03:22:41;;;;;;;;;;;;;;;8.85;100.00;98096.09;104922;1273;61360;-73
2022/09/26 03:25:10;;;;;;;;;;;;;;;8.87;100.00;98094.91;104915;1273;76337;-73
2022/09/26 03:27:37;;;;;;;;;;;;;;;8.88;100.00;98092.36;104877;1273;70384;-73
2022/09/26 03:30:04;;;;;;;;;;;;;;;8.89;100.00;98092.06;104928;1273;74062;-73
2022/09/26 03:32:32;;;;;;;;;;;;;;;8.90;100.00;98089.70;104894;1273;61192;-74
2022/09/26 03:34:58;;;;;;;;;;;;;;;8.90;100.00;98090.73;104891;1273;61304;-74
2022/09/26 03:37:25;;;;;;;;;;;;;;;8.91;100.00;98090.13;104869;1273;61448;-74
2022/09/26 03:39:51;;;;;;;;;;;;;;;8.93;100.00;98086.43;104886;1273;69305;-73
2022/09/26 03:42:18;;;;;;;;;;;;;;;8.95;100.00;98090.19;104909;1273;61184;-73
2022/09/26 03:44:44;;;;;;;;;;;;;;;8.97;100.00;98093.41;104921;1273;61299;-74
2022/09/26 03:47:11;;;;;;;;;;;;;;;8.99;100.00;98089.55;104916;1273;61457;-74
2022/09/26 03:49:38;;;;;;;;;;;;;;;9.02;100.00;98083.33;104954;1273;74884;-73
2022/09/26 03:52:06;;;;;;;;;;;;;;;9.04;100.00;98081.39;104896;1273;61271;-74
2022/09/26 03:54:32;;;;;;;;;;;;;;;9.07;100.00;98080.80;104881;1273;73151;-74
2022/09/26 03:56:59;;;;;;;;;;;;;;;9.09;100.00;98078.88;104868;1273;61354;-72
2022/09/26 03:59:25;;;;;;;;;;;;;;;9.11;100.00;98079.23;104910;1273;61254;-74
2022/09/26 04:01:52;;;;;;;;;;;;;;;9.13;100.00;98078.36;104897;1273;61440;-73
2022/09/26 04:04:18;;;;;;;;;;;;;;;9.15;100.00;98078.02;104885;1273;61235;-73
2022/09/26 04:06:44;;;;;;;;;;;;;;;9.18;100.00;98075.89;104887;1273;61380;-73
2022/09/26 04:09:11;;;;;;;;;;;;;;;9.20;100.00;98075.92;104922;1273;61392;-73
2022/09/26 04:11:37;;;;;;;;;;;;;;;9.21;100.00;98073.48;104954;1273;61363;-73
2022/09/26 04:14:04;;;;;;;;;;;;;;;9.22;100.00;98076.63;104914;1273;61394;-73
2022/09/26 04:16:31;;;;;;;;;;;;;;;9.25;100.00;98074.86;104903;1273;69440;-73
2022/09/26 04:18:58;;;;;;;;;;;;;;;9.25;100.00;98068.83;104904;1273;73283;-73
2022/09/26 04:21:25;;;;;;;;;;;;;;;9.27;100.00;98063.88;104803;1273;61276;-74
2022/09/26 04:23:52;;;;;;;;;;;;;;;9.27;100.00;98064.20;104947;1273;61990;-74
2022/09/26 04:26:20;;;;;;;;;;;;;;;9.29;100.00;98065.52;104886;1273;74990;-74
2022/09/26 04:28:49;;;;;;;;;;;;;;;9.29;100.00;98059.25;104903;1273;70547;-74
2022/09/26 04:31:16;;;;;;;;;;;;;;;9.30;100.00;98055.64;104899;1273;72787;-74
2022/09/26 04:33:43;;;;;;;;;;;;;;;9.31;100.00;98054.30;104906;1273;61280;-74
2022/09/26 04:36:11;;;;;;;;;;;;;;;9.32;100.00;98051.59;104932;1273;61368;-74
2022/09/26 04:38:38;;;;;;;;;;;;;;;9.34;100.00;98052.16;104902;1273;75378;-72
2022/09/26 04:41:15;;;;;;;;;;;;;;;9.35;100.00;98044.66;104928;1273;61283;-74
2022/09/26 04:43:42;;;;;;;;;;;;;;;9.33;100.00;98031.35;104944;1273;74215;-73
2022/09/26 04:46:16;;;;;;;;;;;;;;;9.34;100.00;98034.23;104743;1273;61523;-73
2022/09/26 04:48:43;;;;;;;;;;;;;;;9.34;100.00;98028.23;104915;1273;62155;-73
2022/09/26 04:51:11;;;;;;;;;;;;;;;9.34;100.00;98032.47;104931;1273;76608;-73
2022/09/26 04:53:39;;;;;;;;;;;;;;;9.35;100.00;98029.42;104848;1273;70312;-73
2022/09/26 04:56:06;;;;;;;;;;;;;;;9.36;100.00;98028.42;104894;1273;73909;-73
2022/09/26 04:58:33;;;;;;;;;;;;;;;9.37;100.00;98029.40;104943;1273;61320;-73
2022/09/26 05:01:07;;;;;;;;;;;;;;;9.38;100.00;98031.60;104910;1273;61298;-73
2022/09/26 05:03:35;;;;;;;;;;;;;;;9.40;100.00;98037.16;104864;1273;74988;-73
2022/09/26 05:06:05;;;;;;;;;;;;;;;9.41;100.00;98035.66;104916;1273;69294;-73
2022/09/26 05:08:31;;;;;;;;;;;;;;;9.41;100.00;98032.59;104922;1273;74389;-73
2022/09/26 05:10:58;;;;;;;;;;;;;;;9.43;100.00;98038.13;104899;1273;61381;-73
2022/09/26 05:13:25;;;;;;;;;;;;;;;9.44;100.00;98038.92;104885;1273;61382;-73
2022/09/26 05:15:54;;;;;;;;;;;;;;;9.47;100.00;98040.39;104927;1273;76121;-73
2022/09/26 05:18:24;;;;;;;;;;;;;;;9.48;100.00;98041.34;104956;1273;69010;-73
2022/09/26 05:20:52;;;;;;;;;;;;;;;9.49;100.00;98042.30;104873;1273;74343;-73
2022/09/26 05:26:20;;;;;;;;;;;;;;;9.54;100.00;98040.73;104955;1273;61330;-72
2022/09/26 05:28:48;;;;;;;;;;;;;;;9.60;100.00;98032.94;104949;1273;75423;-72
2022/09/26 05:31:15;;;;;;;;;;;;;;;9.67;100.00;98031.70;104908;1273;69728;-72
2022/09/26 05:33:43;;;;;;;;;;;;;;;9.75;100.00;98028.38;104971;1273;73919;-72
2022/09/26 05:36:10;;;;;;;;;;;;;;;9.82;100.00;98024.61;104909;1274;61300;-72
2022/09/26 05:38:36;;;;;;;;;;;;;;;9.91;100.00;98023.77;104915;1273;61267;-72
2022/09/26 05:41:03;;;;;;;;;;;;;;;9.97;100.00;98022.39;104932;1273;61384;-72
2022/09/26 05:43:32;;;;;;;;;;;;;;;10.02;100.00;98015.95;104899;1273;69319;-73
2022/09/26 05:46:03;;;;;;;;;;;;;;;10.07;100.00;98014.10;105097;1273;74501;-73
2022/09/26 05:48:31;;;;;;;;;;;;;;;10.13;100.00;98018.81;104981;1273;61293;-73
2022/09/26 05:51:09;;;;;;;;;;;;;;;10.16;100.00;98019.23;104969;1273;61389;-73
2022/09/26 05:53:36;;;;;;;;;;;;;;;10.18;100.00;98015.92;104923;1273;76208;-73
2022/09/26 05:56:04;;;;;;;;;;;;;;;10.21;100.00;98023.27;104966;1273;69974;-73
2022/09/26 05:58:33;;;;;;;;;;;;;;;10.25;100.00;98020.48;105118;1273;73187;-73
2022/09/26 06:01:06;;;;;;;;;;;;;;;10.28;100.00;98019.91;105065;1273;61418;-74
2022/09/26 06:03:34;;;;;;;;;;;;;;;10.31;100.00;98021.13;105023;1273;62716;-72
2022/09/26 06:06:04;;;;;;;;;;;;;;;10.31;100.00;98019.64;105026;1273;75471;-73
2022/09/26 06:08:31;;;;;;;;;;;;;;;10.31;100.00;98022.33;105003;1273;69377;-73
2022/09/26 06:10:59;;;;;;;;;;;;;;;10.32;100.00;98020.81;104969;1273;61321;-73
2022/09/26 06:13:25;;;;;;;;;;;;;;;10.33;100.00;98017.01;104943;1273;61324;-72
2022/09/26 06:15:53;;;;;;;;;;;;;;;10.36;100.00;98014.52;104936;1273;61433;-72
2022/09/26 06:18:20;;;;;;;;;;;;;;;10.38;100.00;98013.63;104906;1273;75196;-73
2022/09/26 06:20:47;;;;;;;;;;;;;;;10.41;100.00;98012.34;104927;1273;68799;-71
2022/09/26 06:23:14;;;;;;;;;;;;;;;10.43;100.00;98008.27;105011;1273;73505;-74
2022/09/26 06:25:41;;;;;;;;;;;;;;;10.45;100.00;98011.82;104948;1273;61312;-73
2022/09/26 06:28:07;;;;;;;;;;;;;;;10.47;100.00;98012.14;104934;1273;61832;-74
2022/09/26 06:30:34;;;;;;;;;;;;;;;10.49;100.00;98013.95;104940;1273;61346;-72
2022/09/26 06:33:02;;;;;;;;;;;;;;;10.52;100.00;98010.33;104862;1273;69115;-74
2022/09/26 06:35:29;;;;;;;;;;;;;;;10.54;100.00;98011.73;104443;1273;412900;-74
2022/09/26 06:37:58;;;;;;;;;;;;;;;10.57;100.00;98010.80;104911;1273;61396;-73
2022/09/26 06:40:25;;;;;;;;;;;;;;;10.59;100.00;98010.67;104855;1274;61362;-73
2022/09/26 06:42:51;;;;;;;;;;;;;;;10.61;100.00;98011.77;104836;1273;61400;-73
2022/09/26 06:45:17;;;;;;;;;;;;;;;10.63;100.00;98012.98;104907;1273;61336;-73
2022/09/26 06:47:46;;;;;;;;;;;;;;;10.65;100.00;98013.90;104886;1273;61313;-73
2022/09/26 06:50:13;;;;;;;;;;;;;;;10.66;100.00;98010.90;104821;1274;61274;-73
2022/09/26 06:52:41;;;;;;;;;;;;;;;10.68;100.00;98011.43;104925;1273;61279;-73
2022/09/26 06:55:08;;;;;;;;;;;;;;;10.71;100.00;98008.73;104926;1273;76089;-73
2022/09/26 06:57:39;;;;;;;;;;;;;;;10.74;100.00;98009.77;104927;1273;70921;-74
2022/09/26 07:00:09;;;;;;;;;;;;;;;10.77;100.00;98011.28;104996;1275;72328;-73
2022/09/26 07:02:36;;;;;;;;;;;;;;;10.79;100.00;98011.13;104948;1273;61429;-73
2022/09/26 07:05:04;;;;;;;;;;;;;;;10.81;100.00;98014.50;104908;1275;61421;-73
2022/09/26 07:07:31;;;;;;;;;;;;;;;10.82;100.00;98008.55;105044;1275;74421;-73
2022/09/26 07:09:58;;;;;;;;;;;;;;;10.84;100.00;98007.38;104961;1273;68433;-73
2022/09/26 07:12:24;;;;;;;;;;;;;;;10.87;100.00;98010.44;104925;1273;61328;-74
2022/09/26 07:14:50;;;;;;;;;;;;;;;10.91;100.00;98009.75;104941;1273;61294;-73
2022/09/26 07:17:17;;;;;;;;;;;;;;;10.95;100.00;98010.13;104946;1273;61280;-74
2022/09/26 07:19:44;;;;;;;;;;;;;;;10.99;100.00;98007.84;104960;1273;61280;-73
2022/09/26 07:22:13;;;;;;;;;;;;;;;11.04;100.00;98007.58;104921;1274;69623;-73
2022/09/26 07:24:41;;;;;;;;;;;;;;;11.10;100.00;98007.79;104899;1275;74348;-73
2022/09/26 07:27:09;;;;;;;;;;;;;;;11.15;100.00;98006.25;104946;1274;61299;-74
2022/09/26 07:29:35;;;;;;;;;;;;;;;11.23;100.00;98008.09;104935;1273;62020;-72
2022/09/26 07:32:02;;;;;;;;;;;;;;;11.32;100.00;98004.34;104928;1273;61284;-72
2022/09/26 07:34:28;;;;;;;;;;;;;;;11.39;100.00;98004.56;104951;1273;70386;-72
2022/09/26 07:36:55;;;;;;;;;;;;;;;11.46;100.00;98010.60;104890;1273;61299;-74
2022/09/26 07:39:22;;;;;;;;;;;;;;;11.52;100.00;98009.73;104883;1273;61384;-73
2022/09/26 07:41:48;;;;;;;;;;;;;;;11.57;100.00;98008.92;104989;1273;61298;-73
2022/09/26 07:44:15;;;;;;;;;;;;;;;11.61;100.00;98014.25;104937;1273;61279;-74
2022/09/26 07:52:12;;;;;;;;;;;;;;;11.72;100.00;98015.60;104922;1273;61360;-72
2022/09/26 07:54:38;;;;;;;;;;;;;;;11.74;100.00;98012.21;104924;1273;61850;-72
2022/09/26 07:57:05;;;;;;;;;;;;;;;11.79;100.00;98012.84;104911;1273;74872;-72
2022/09/26 07:59:35;;;;;;;;;;;;;;;11.88;100.00;98013.52;104949;1273;61275;-72
2022/09/26 08:02:02;;;;;;;;;;;;;;;11.97;100.00;98013.42;104941;1273;74211;-73
2022/09/26 08:04:29;;;;;;;;;;;;;;;12.06;100.00;98015.30;104951;1273;61270;-72
2022/09/26 08:06:56;;;;;;;;;;;;;;;12.12;100.00;98013.23;104893;1273;61246;-72
2022/09/26 08:09:22;;;;;;;;;;;;;;;12.14;100.00;98014.27;104985;1273;75995;-72
2022/09/26 08:11:49;;;;;;;;;;;;;;;12.18;100.00;98013.75;104928;1273;61178;-72
2022/09/26 08:14:15;;;;;;;;;;;;;;;12.22;100.00;98017.59;104878;1275;61370;-71
2022/09/26 08:16:42;;;;;;;;;;;;;;;12.26;100.00;98017.62;104874;1273;61310;-74
2022/09/26 08:19:11;;;;;;;;;;;;;;;12.27;100.00;98018.79;104936;1273;61345;-71
2022/09/26 08:21:38;;;;;;;;;;;;;;;12.25;100.00;98015.17;104941;1273;75037;-74
2022/09/26 08:24:04;;;;;;;;;;;;;;;12.25;100.00;98017.88;104836;1273;61359;-71
2022/09/26 08:26:31;;;;;;;;;;;;;;;12.24;100.00;98019.26;104909;1273;73476;-72
2022/09/26 08:28:58;;;;;;;;;;;;;;;12.24;100.00;98017.97;104931;1273;61323;-72
2022/09/26 08:31:25;;;;;;;;;;;;;;;12.27;100.00;98018.42;104968;1273;61259;-72
2022/09/26 08:33:52;;;;;;;;;;;;;;;12.32;100.00;98017.13;105061;1273;75267;-72
2022/09/26 08:36:19;;;;;;;;;;;;;;;12.35;100.00;98017.55;104943;1273;69137;-72
2022/09/26 08:38:48;;;;;;;;;;;;;;;12.35;100.00;98017.02;105000;1273;72677;-73
2022/09/26 08:41:31;;;;;;;;;;;;;;;12.35;100.00;98015.93;104906;1273;61259;-73
2022/09/26 08:43:57;;;;;;;;;;;;;;;12.34;100.00;98019.48;104923;1273;61658;-73
2022/09/26 08:49:22;;;;;;;;;;;;;;;12.35;100.00;98016.99;104953;1273;68917;-73
2022/09/26 08:51:51;;;;;;;;;;;;;;;12.40;100.00;98017.32;104974;1273;73223;-73
2022/09/26 08:54:19;;;;;;;;;;;;;;;12.44;100.00;98011.59;104944;1273;61421;-73
2022/09/26 08:56:47;;;;;;;;;;;;;;;12.49;100.00;98011.63;104929;1273;61239;-73
2022/09/26 08:59:23;;;;;;;;;;;;;;;12.56;100.00;98012.33;105055;1273;74159;-73
2022/09/26 09:01:51;;;;;;;;;;;;;;;12.62;100.00;98007.64;104917;1273;69774;-72
2022/09/26 09:04:37;;;;;;;;;;;;;;;12.69;100.00;98007.84;104921;1273;74598;-72
2022/09/26 09:07:10;;;;;;;;;;;;;;;12.78;100.00;98008.70;104940;1273;61309;-72
2022/09/26 09:09:37;;;;;;;;;;;;;;;12.86;100.00;98008.13;105042;1273;61940;-72
2022/09/26 09:12:31;;;;;;;;;;;;;;;12.91;100.00;98007.61;104976;1273;61303;-72
2022/09/26 09:15:06;;;;;;;;;;;;;;;12.98;100.00;98011.07;104975;1273;70291;-73
2022/09/26 09:17:46;;;;;;;;;;;;;;;13.03;100.00;98014.20;104928;1273;73192;-75
2022/09/26 09:20:19;;;;;;;;;;;;;;;13.09;100.00;98012.72;105112;1273;61327;-73
2022/09/26 09:23:12;;;;;;;;;;;;;;;13.19;100.00;98011.12;104964;1273;61277;-73
2022/09/26 09:25:42;;;;;;;;;;;;;;;13.27;100.00;98006.09;104961;1273;76416;-74
2022/09/26 09:28:08;;;;;;;;;;;;;;;13.36;100.00;98002.08;104954;1273;70124;-73
2022/09/26 09:30:35;;;;;;;;;;;;;;;13.45;100.00;98006.17;104932;1273;61281;-73
2022/09/26 09:33:09;;;;;;;;;;;;;;;13.60;100.00;97999.62;104976;1274;61865;-73
2022/09/26 09:35:56;;;;;;;;;;;;;;;13.71;100.00;97999.98;104986;1273;61448;-73
2022/09/26 09:38:27;;;;;;;;;;;;;;;13.76;100.00;97995.78;104484;1278;75438;-74
2022/09/26 09:41:01;;;;;;;;;;;;;;;13.80;100.00;97996.94;104526;1278;70371;-74
2022/09/26 09:43:32;;;;;;;;;;;;;;;13.84;100.00;97996.41;104372;1279;73311;-74
2022/09/26 09:46:04;;;;;;;;;;;;;;;13.85;100.00;97997.23;104520;1278;61342;-75
2022/09/26 09:48:30;;;;;;;;;;;;;;;13.85;100.00;97994.36;104512;1278;61812;-71
2022/09/26 09:50:56;;;;;;;;;;;;;;;13.94;100.00;97996.02;104904;1277;61325;-84
2022/09/26 09:53:48;;;;;;;;;;;;;;;14.05;100.00;97992.37;105327;1278;61442;-83
2022/09/26 09:56:24;;;;;;;;;;;;;;;14.21;100.00;97994.20;105061;1278;73323;-88
2022/09/26 09:59:11;;;;;;;;;;;;;;;14.44;100.00;97990.77;105213;1278;61221;-87
2022/09/26 10:01:40;;;;;;;;;;;;;;;14.63;100.00;97989.57;104639;1284;61603;-82
2022/09/26 10:04:19;;;;;;;;;;;;;;;14.80;100.00;97991.70;104925;1283;76025;-83
2022/09/26 10:06:47;;;;;;;;;;;;;;;14.87;100.00;97996.80;104564;1284;70050;-85
2022/09/26 10:09:18;;;;;;;;;;;;;;;14.89;100.00;98002.29;104519;1284;74454;-84
2022/09/26 10:11:44;;;;;;;;;;;;;;;14.93;100.00;97998.23;104533;1284;61453;-85
2022/09/26 10:14:17;;;;;;;;;;;;;;;15.03;100.00;97998.50;104512;1284;61283;-86
2022/09/26 10:17:02;;;;;;;;;;;;;;;15.14;100.00;97995.02;104531;1284;74818;-86
2022/09/26 10:19:32;;;;;;;;;;;;;;;15.37;100.00;97991.27;104655;1281;70833;-83
2022/09/26 10:21:59;;;;;;;;;;;;;;;15.55;100.00;97989.75;104733;1281;73343;-84
2022/09/26 10:24:33;;;;;;;;;;;;;;;15.69;100.00;97987.39;104704;1281;61319;-88
2022/09/26 10:27:21;;;;;;;;;;;;;;;15.80;100.00;97984.50;104649;1281;62101;-76
2022/09/26 10:29:57;;;;;;;;;;;;;;;15.93;100.00;97985.57;103978;1285;75538;-71
2022/09/26 10:32:25;;;;;;;;;;;;;;;16.09;100.00;97983.11;104087;1286;69665;-71
2022/09/26 10:35:17;;;;;;;;;;;;;;;16.13;100.00;97986.42;104061;1285;72260;-72
2022/09/26 10:38:00;;;;;;;;;;;;;;;16.20;100.00;97984.54;104082;1285;61420;-72
2022/09/26 10:40:44;;;;;;;;;;;;;;;16.35;100.00;97978.87;104718;1279;61406;-72
2022/09/26 10:43:20;;;;;;;;;;;;;;;16.55;100.00;97977.09;104557;1279;75363;-72
2022/09/26 10:45:54;;;;;;;;;;;;;;;16.79;100.00;97975.89;104571;1279;69289;-72
2022/09/26 10:48:25;;;;;;;;;;;;;;;17.04;100.00;97971.77;104573;1280;74478;-71
2022/09/26 10:50:59;;;;;;;;;;;;;;;17.34;100.00;97968.23;104717;1280;61430;-71
2022/09/26 10:53:29;;;;;;;;;;;;;;;17.65;100.00;97965.55;104609;1278;61491;-70
2022/09/26 10:56:00;;;;;;;;;;;;;;;17.94;100.00;97959.69;104661;1278;75393;-71
2022/09/26 10:58:28;;;;;;;;;;;;;;;18.35;100.00;97957.92;104544;1278;69368;-72
2022/09/26 11:00:58;;;;;;;;;;;;;;;18.56;100.00;97954.39;104592;1280;72204;-71
2022/09/26 11:03:42;;;;;;;;;;;;;;;18.73;100.00;97948.78;104802;1279;61499;-72
2022/09/26 11:06:23;;;;;;;;;;;;;;;18.81;100.00;97946.08;104543;1280;61330;-71
2022/09/26 11:08:51;;;;;;;;;;;;;;;18.75;100.00;97943.35;105131;1274;75380;-82
2022/09/26 11:11:20;;;;;;;;;;;;;;;18.78;100.00;97945.52;105753;1273;68774;-80
2022/09/26 11:14:02;;;;;;;;;;;;;;;18.80;100.00;97943.36;105150;1274;74447;-82
2022/09/26 11:16:37;;;;;;;;;;;;;;;18.84;100.00;97946.38;105417;1274;61326;-83
2022/09/26 11:19:03;;;;;;;;;;;;;;;18.89;100.00;97944.81;105297;1273;61808;-85
2022/09/26 11:21:46;;;;;;;;;;;;;;;18.98;100.00;97934.70;105484;1274;73960;-85
2022/09/26 11:24:18;;;;;;;;;;;;;;;19.04;100.00;97933.51;105450;1274;68962;-84
2022/09/26 11:26:48;;;;;;;;;;;;;;;19.05;100.00;97933.45;105301;1274;74109;-84
2022/09/26 11:29:23;;;;;;;;;;;;;;;18.97;100.00;97930.02;105453;1273;61216;-83
2022/09/26 11:31:50;;;;;;;;;;;;;;;18.83;100.00;97935.73;105458;1273;61347;-76
2022/09/26 11:34:25;;;;;;;;;;;;;;;18.69;100.00;97933.51;105475;1273;74914;-82
2022/09/26 11:37:01;;;;;;;;;;;;;;;18.60;100.00;97928.15;105421;1273;68828;-80
2022/09/26 11:39:30;;;;;;;;;;;;;;;18.71;100.00;97926.41;105528;1273;71673;-81
2022/09/26 11:42:00;;;;;;;;;;;;;;;18.85;100.00;97920.20;105352;1273;61386;-80
2022/09/26 11:44:32;;;;;;;;;;;;;;;18.89;100.00;97917.23;105163;1274;61103;-70
2022/09/26 11:46:59;;;;;;;;;;;;;;;18.86;100.00;97915.07;104997;1273;75498;-71
2022/09/26 11:49:44;;;;;;;;;;;;;;;18.84;100.00;97912.38;104950;1273;61233;-71
2022/09/26 11:52:13;;;;;;;;;;;;;;;18.75;100.00;97917.23;104964;1273;73419;-71
2022/09/26 11:54:57;;;;;;;;;;;;;;;18.64;100.00;97913.89;104916;1273;61325;-71
2022/09/26 11:57:26;;;;;;;;;;;;;;;18.54;100.00;97910.77;104968;1273;61260;-70
2022/09/26 12:00:14;;;;;;;;;;;;;;;18.50;100.00;97908.54;104905;1273;76434;-70
2022/09/26 12:02:50;;;;;;;;;;;;;;;18.39;100.00;97907.81;104937;1273;69386;-70
2022/09/26 12:05:16;;;;;;;;;;;;;;;18.36;100.00;97909.98;104962;1273;74478;-70
2022/09/26 12:08:01;;;;;;;;;;;;;;;18.41;100.00;97909.34;105019;1273;61333;-70
2022/09/26 12:10:31;;;;;;;;;;;;;;;18.48;100.00;97906.42;105013;1273;61317;-70
2022/09/26 12:13:02;;;;;;;;;;;;;;;18.62;100.00;97903.11;104923;1273;75933;-71
2022/09/26 12:15:28;;;;;;;;;;;;;;;18.73;100.00;97899.53;104982;1274;69439;-70
2022/09/26 12:17:58;;;;;;;;;;;;;;;18.87;100.00;97902.06;105077;1273;61399;-71
2022/09/26 12:20:31;;;;;;;;;;;;;;;18.92;100.00;97899.66;105050;1274;61311;-70
2022/09/26 12:23:06;;;;;;;;;;;;;;;18.95;100.00;97902.09;104913;1274;61175;-71
2022/09/26 12:25:36;;;;;;;;;;;;;;;18.96;100.00;97902.35;105076;1274;76233;-71
2022/09/26 12:28:19;;;;;;;;;;;;;;;19.00;100.00;97901.20;105103;1274;69284;-71
2022/09/26 12:30:56;;;;;;;;;;;;;;;18.90;100.00;97905.31;105089;1274;73201;-70
2022/09/26 12:33:29;;;;;;;;;;;;;;;18.85;100.00;97898.96;105045;1274;61267;-70
2022/09/26 12:36:04;;;;;;;;;;;;;;;18.93;100.00;97899.48;105018;1273;61671;-71
2022/09/26 12:38:31;;;;;;;;;;;;;;;19.10;100.00;97901.31;105013;1273;75685;-71
2022/09/26 12:41:10;;;;;;;;;;;;;;;19.25;100.00;97893.84;104908;1273;61285;-70
2022/09/26 12:43:48;;;;;;;;;;;;;;;19.28;100.00;97893.29;105032;1273;74008;-71
2022/09/26 12:46:20;;;;;;;;;;;;;;;19.14;100.00;97896.15;105156;1274;61329;-71
2022/09/26 12:49:05;;;;;;;;;;;;;;;18.94;100.00;97895.25;105065;1273;61872;-70
2022/09/26 12:51:35;;;;;;;;;;;;;;;18.89;100.00;97893.71;105185;1273;75269;-70
2022/09/26 12:54:13;;;;;;;;;;;;;;;18.81;100.00;97892.27;104911;1274;70447;-70
2022/09/26 12:56:50;;;;;;;;;;;;;;;18.73;100.00;97891.46;104931;1274;73327;-71
2022/09/26 12:59:21;;;;;;;;;;;;;;;18.78;100.00;97890.80;105050;1273;61294;-70